createdAt,value
2022-10-06T00:00:23.958Z,3.5
2022-10-06T00:01:32.368Z,3.5
2022-10-06T00:02:40.636Z,3.5
2022-10-06T00:03:49.129Z,3.6
2022-10-06T00:04:57.460Z,3.6
2022-10-06T00:06:05.807Z,3.6
2022-10-06T00:07:14.304Z,3.4
2022-10-06T00:08:22.636Z,3.4
2022-10-06T00:09:30.946Z,3.4
2022-10-06T00:10:39.479Z,3
2022-10-06T00:11:47.787Z,3
2022-10-06T00:12:56.122Z,3
2022-10-06T00:14:04.659Z,3.1
2022-10-06T00:15:12.974Z,3.1
2022-10-06T00:16:21.324Z,3.1
2022-10-06T00:17:29.825Z,3.1
2022-10-06T00:18:38.156Z,3.1
2022-10-06T00:19:46.469Z,3.1
2022-10-06T00:20:54.990Z,3
2022-10-06T00:22:03.330Z,3
2022-10-06T00:23:11.633Z,3
2022-10-06T00:24:20.170Z,3.3
2022-10-06T00:25:28.501Z,3.3
2022-10-06T00:26:36.829Z,3.3
2022-10-06T00:27:45.366Z,2.9
2022-10-06T00:28:53.683Z,2.9
2022-10-06T00:30:02.007Z,2.9
2022-10-06T00:31:10.600Z,2.9
2022-10-06T00:32:18.856Z,2.9
2022-10-06T00:33:27.188Z,2.9
2022-10-06T00:34:35.703Z,3.2
2022-10-06T00:35:44.017Z,3.2
2022-10-06T00:36:52.329Z,3.2
2022-10-06T00:38:00.946Z,2.5
2022-10-06T00:39:09.198Z,2.5
2022-10-06T00:40:17.554Z,2.5
2022-10-06T00:41:26.087Z,3
2022-10-06T00:42:34.411Z,3
2022-10-06T00:43:42.736Z,3
2022-10-06T00:44:51.260Z,2.9
2022-10-06T00:45:59.635Z,2.9
2022-10-06T00:47:07.923Z,2.9
2022-10-06T00:48:16.449Z,2.7
2022-10-06T00:49:24.767Z,2.7
2022-10-06T00:50:33.099Z,2.7
2022-10-06T00:51:41.627Z,2.6
2022-10-06T00:52:49.953Z,2.6
2022-10-06T00:53:58.311Z,2.6
2022-10-06T00:55:06.809Z,2.7
2022-10-06T00:56:15.145Z,2.7
2022-10-06T00:57:23.482Z,2.7
2022-10-06T00:58:32.064Z,3
2022-10-06T00:59:40.338Z,3
2022-10-06T01:00:48.742Z,3
2022-10-06T01:01:57.361Z,2.7
2022-10-06T01:03:05.680Z,2.7
2022-10-06T01:04:13.952Z,2.7
2022-10-06T01:05:22.477Z,2.9
2022-10-06T01:06:30.783Z,2.9
2022-10-06T01:07:39.109Z,2.9
2022-10-06T01:08:47.632Z,2.9
2022-10-06T01:09:55.983Z,2.9
2022-10-06T01:11:04.271Z,2.9
2022-10-06T01:12:12.810Z,2.7
2022-10-06T01:13:21.130Z,2.7
2022-10-06T01:14:29.442Z,2.7
2022-10-06T01:15:38.021Z,2.7
2022-10-06T01:16:46.299Z,2.7
2022-10-06T01:17:54.609Z,2.7
2022-10-06T01:19:03.130Z,2.7
2022-10-06T01:20:11.450Z,2.7
2022-10-06T01:21:19.779Z,2.7
2022-10-06T01:22:28.325Z,3.1
2022-10-06T01:23:36.626Z,3.1
2022-10-06T01:24:44.955Z,3.1
2022-10-06T01:25:53.495Z,2.7
2022-10-06T01:27:01.806Z,2.7
2022-10-06T01:28:10.183Z,2.7
2022-10-06T01:29:18.648Z,2.5
2022-10-06T01:30:26.984Z,2.5
2022-10-06T01:31:35.388Z,2.5
2022-10-06T01:32:43.832Z,2.8
2022-10-06T01:33:52.149Z,2.8
2022-10-06T01:35:00.483Z,2.8
2022-10-06T01:36:09.020Z,3
2022-10-06T01:37:17.344Z,3
2022-10-06T01:38:26.100Z,3
2022-10-06T01:39:34.186Z,2.7
2022-10-06T01:40:42.510Z,2.7
2022-10-06T01:41:50.982Z,2.7
2022-10-06T01:42:59.358Z,3.2
2022-10-06T01:44:07.670Z,3.2
2022-10-06T01:45:15.998Z,3.2
2022-10-06T01:46:24.609Z,2.8
2022-10-06T01:47:32.835Z,2.8
2022-10-06T01:48:41.164Z,2.8
2022-10-06T01:49:49.690Z,2.9
2022-10-06T01:50:58.008Z,2.9
2022-10-06T01:52:06.335Z,2.9
2022-10-06T01:53:14.859Z,3.3
2022-10-06T01:54:23.191Z,3.3
2022-10-06T01:55:31.526Z,3.3
2022-10-06T01:56:40.049Z,2.6
2022-10-06T01:57:48.461Z,2.6
2022-10-06T01:58:56.693Z,2.6
2022-10-06T02:00:05.224Z,2.9
2022-10-06T02:01:13.591Z,2.9
2022-10-06T02:02:21.885Z,2.9
2022-10-06T02:03:30.404Z,3
2022-10-06T02:04:38.730Z,3
2022-10-06T02:05:47.055Z,3
2022-10-06T02:06:55.576Z,3.5
2022-10-06T02:08:03.885Z,3.5
2022-10-06T02:09:12.214Z,3.5
2022-10-06T02:10:20.730Z,2.9
2022-10-06T02:11:29.062Z,2.9
2022-10-06T02:12:37.404Z,2.9
2022-10-06T02:13:45.950Z,3
2022-10-06T02:14:54.245Z,3
2022-10-06T02:16:02.592Z,3
2022-10-06T02:17:11.095Z,2.9
2022-10-06T02:18:19.410Z,2.9
2022-10-06T02:19:27.728Z,2.9
2022-10-06T02:20:36.259Z,3
2022-10-06T02:21:44.583Z,3
2022-10-06T02:22:52.900Z,3
2022-10-06T02:24:01.432Z,3.3
2022-10-06T02:25:09.738Z,3.3
2022-10-06T02:26:18.068Z,3.3
2022-10-06T02:27:26.588Z,2.7
2022-10-06T02:28:35.119Z,2.7
2022-10-06T02:29:43.323Z,2.7
2022-10-06T02:30:51.820Z,3.2
2022-10-06T02:32:00.079Z,3.2
2022-10-06T02:33:08.381Z,3.2
2022-10-06T02:34:16.904Z,3
2022-10-06T02:35:25.211Z,3
2022-10-06T02:36:33.530Z,3
2022-10-06T02:37:42.064Z,3
2022-10-06T02:38:50.374Z,3
2022-10-06T02:39:58.701Z,3
2022-10-06T02:41:07.236Z,3.1
2022-10-06T02:42:15.563Z,3.1
2022-10-06T02:43:23.875Z,3.1
2022-10-06T02:44:32.407Z,3
2022-10-06T02:45:40.745Z,3
2022-10-06T02:46:49.155Z,3
2022-10-06T02:47:57.559Z,3
2022-10-06T02:49:05.870Z,3
2022-10-06T02:50:14.199Z,3
2022-10-06T02:51:22.737Z,2.9
2022-10-06T02:52:31.043Z,2.9
2022-10-06T02:53:39.374Z,2.9
2022-10-06T02:54:47.896Z,3.6
2022-10-06T02:55:56.234Z,3.6
2022-10-06T02:57:04.550Z,3.6
2022-10-06T02:58:13.075Z,3.1
2022-10-06T02:59:21.397Z,3.1
2022-10-06T03:00:29.724Z,3.1
2022-10-06T03:01:38.367Z,3.2
2022-10-06T03:02:46.685Z,3.2
2022-10-06T03:03:54.868Z,3.2
2022-10-06T03:05:03.408Z,3.1
2022-10-06T03:06:11.741Z,3.1
2022-10-06T03:07:20.063Z,3.1
2022-10-06T03:08:28.844Z,3
2022-10-06T03:09:36.904Z,3
2022-10-06T03:10:45.232Z,3
2022-10-06T03:11:53.750Z,3.2
2022-10-06T03:13:02.061Z,3.2
2022-10-06T03:14:10.383Z,3.2
2022-10-06T03:15:18.943Z,3.2
2022-10-06T03:16:27.279Z,3.2
2022-10-06T03:17:35.601Z,3.2
2022-10-06T03:18:44.105Z,2.9
2022-10-06T03:19:52.439Z,2.9
2022-10-06T03:21:00.761Z,2.9
2022-10-06T03:22:09.290Z,3.2
2022-10-06T03:23:17.617Z,3.2
2022-10-06T03:24:25.930Z,3.2
2022-10-06T03:25:34.478Z,3.1
2022-10-06T03:26:42.795Z,3.1
2022-10-06T03:27:51.105Z,3.1
2022-10-06T03:28:59.635Z,3.5
2022-10-06T03:30:07.964Z,3.5
2022-10-06T03:31:16.333Z,3.5
2022-10-06T03:32:24.800Z,3.2
2022-10-06T03:33:33.131Z,3.2
2022-10-06T03:34:41.428Z,3.2
2022-10-06T03:35:49.958Z,3.3
2022-10-06T03:36:58.273Z,3.3
2022-10-06T03:38:06.584Z,3.3
2022-10-06T03:39:15.109Z,3.3
2022-10-06T03:40:23.436Z,3.3
2022-10-06T03:41:31.748Z,3.3
2022-10-06T03:42:40.279Z,3.1
2022-10-06T03:43:48.592Z,3.1
2022-10-06T03:44:56.916Z,3.1
2022-10-06T03:46:05.443Z,3.5
2022-10-06T03:47:17.157Z,3.5
2022-10-06T03:48:22.067Z,3.5
2022-10-06T03:49:30.616Z,3.7
2022-10-06T03:50:38.910Z,3.7
2022-10-06T03:51:47.232Z,3.7
2022-10-06T03:52:55.757Z,3.4
2022-10-06T03:54:04.063Z,3.4
2022-10-06T03:55:12.384Z,3.4
2022-10-06T03:56:20.900Z,3.4
2022-10-06T03:57:29.200Z,3.4
2022-10-06T03:58:37.517Z,3.4
2022-10-06T03:59:46.034Z,3.7
2022-10-06T04:00:54.476Z,3.7
2022-10-06T04:02:02.791Z,3.7
2022-10-06T04:03:11.348Z,3.5
2022-10-06T04:04:19.676Z,3.5
2022-10-06T04:05:28.032Z,3.5
2022-10-06T04:06:36.531Z,3.5
2022-10-06T04:07:44.882Z,3.5
2022-10-06T04:08:53.158Z,3.5
2022-10-06T04:10:01.682Z,3.4
2022-10-06T04:11:09.999Z,3.4
2022-10-06T04:12:18.305Z,3.4
2022-10-06T04:13:26.894Z,3.7
2022-10-06T04:14:35.185Z,3.7
2022-10-06T04:15:43.505Z,3.7
2022-10-06T04:16:52.033Z,3.9
2022-10-06T04:18:00.347Z,3.9
2022-10-06T04:19:08.661Z,3.9
2022-10-06T04:20:17.258Z,3.9
2022-10-06T04:21:25.598Z,3.9
2022-10-06T04:22:33.885Z,3.9
2022-10-06T04:23:42.416Z,4
2022-10-06T04:24:50.745Z,4
2022-10-06T04:25:59.066Z,4
2022-10-06T04:27:07.592Z,3.9
2022-10-06T04:28:15.973Z,3.9
2022-10-06T04:29:24.229Z,3.9
2022-10-06T04:30:32.753Z,3.7
2022-10-06T04:31:41.236Z,3.7
2022-10-06T04:32:49.406Z,3.7
2022-10-06T04:33:57.940Z,4.3
2022-10-06T04:35:06.257Z,4.3
2022-10-06T04:36:14.571Z,4.3
2022-10-06T04:37:23.125Z,5.9
2022-10-06T04:38:31.988Z,5.9
2022-10-06T04:39:39.845Z,5.9
2022-10-06T04:40:48.374Z,6.9
2022-10-06T04:41:56.685Z,6.9
2022-10-06T04:43:05.023Z,6.9
2022-10-06T04:44:13.561Z,8.7
2022-10-06T04:45:21.881Z,8.7
2022-10-06T04:46:42.495Z,8.7
2022-10-06T04:47:38.713Z,9.2
2022-10-06T04:48:47.035Z,9.2
2022-10-06T04:49:55.373Z,9.2
2022-10-06T04:51:03.884Z,6.9
2022-10-06T04:52:12.204Z,6.9
2022-10-06T04:53:20.564Z,6.9
2022-10-06T04:54:33.491Z,5.7
2022-10-06T04:55:37.376Z,5.7
2022-10-06T04:56:45.686Z,5.7
2022-10-06T04:57:54.219Z,6.9
2022-10-06T04:59:02.538Z,6.9
2022-10-06T05:00:14.681Z,6.9
2022-10-06T05:01:19.414Z,5.9
2022-10-06T05:02:27.701Z,5.9
2022-10-06T05:03:35.992Z,5.9
2022-10-06T05:04:44.524Z,4.7
2022-10-06T05:05:52.838Z,4.7
2022-10-06T05:07:01.187Z,4.7
2022-10-06T05:08:09.691Z,5.1
2022-10-06T05:09:18.059Z,5.1
2022-10-06T05:10:26.358Z,5.1
2022-10-06T05:11:34.880Z,4.4
2022-10-06T05:12:43.188Z,4.4
2022-10-06T05:13:51.510Z,4.4
2022-10-06T05:15:00.032Z,4.6
2022-10-06T05:16:08.382Z,4.6
2022-10-06T05:17:16.658Z,4.6
2022-10-06T05:18:25.235Z,4.2
2022-10-06T05:19:33.518Z,4.2
2022-10-06T05:20:41.843Z,4.2
2022-10-06T05:21:50.365Z,4.5
2022-10-06T05:22:58.727Z,4.5
2022-10-06T05:24:07.032Z,4.5
2022-10-06T05:25:15.584Z,4.6
2022-10-06T05:26:23.889Z,4.6
2022-10-06T05:27:32.207Z,4.6
2022-10-06T05:28:40.795Z,4.8
2022-10-06T05:29:49.060Z,4.8
2022-10-06T05:30:57.371Z,4.8
2022-10-06T05:32:05.937Z,5.2
2022-10-06T05:33:14.207Z,5.2
2022-10-06T05:34:22.527Z,5.2
2022-10-06T05:35:31.052Z,5.5
2022-10-06T05:36:39.374Z,5.5
2022-10-06T05:37:47.703Z,5.5
2022-10-06T05:38:56.223Z,5.5
2022-10-06T05:40:04.529Z,5.5
2022-10-06T05:41:12.934Z,5.5
2022-10-06T05:42:22.084Z,5.4
2022-10-06T05:43:29.688Z,5.4
2022-10-06T05:44:37.992Z,5.4
2022-10-06T05:45:46.589Z,5.3
2022-10-06T05:46:54.893Z,5.3
2022-10-06T05:48:03.182Z,5.3
2022-10-06T05:49:11.708Z,5.6
2022-10-06T05:50:20.759Z,5.6
2022-10-06T05:51:30.796Z,5.6
2022-10-06T05:52:36.909Z,4.8
2022-10-06T05:53:45.241Z,4.8
2022-10-06T05:54:53.553Z,4.8
2022-10-06T05:56:02.084Z,5.5
2022-10-06T05:57:10.448Z,5.5
2022-10-06T05:58:18.718Z,5.5
2022-10-06T05:59:27.245Z,5
2022-10-06T06:00:35.556Z,5
2022-10-06T06:01:43.915Z,5
2022-10-06T06:02:52.521Z,4.7
2022-10-06T06:04:00.749Z,4.7
2022-10-06T06:05:09.073Z,4.7
2022-10-06T06:06:17.614Z,4.8
2022-10-06T06:07:25.955Z,4.8
2022-10-06T06:08:34.278Z,4.8
2022-10-06T06:09:42.836Z,4.8
2022-10-06T06:10:51.150Z,4.8
2022-10-06T06:11:59.455Z,4.8
2022-10-06T06:13:08.090Z,5.7
2022-10-06T06:14:16.344Z,5.7
2022-10-06T06:15:24.682Z,5.7
2022-10-06T06:16:33.272Z,6
2022-10-06T06:17:41.526Z,6
2022-10-06T06:18:49.856Z,6
2022-10-06T06:19:58.381Z,5.7
2022-10-06T06:21:06.699Z,5.7
2022-10-06T06:22:15.017Z,5.7
2022-10-06T06:23:23.556Z,5.1
2022-10-06T06:24:31.941Z,5.1
2022-10-06T06:25:40.276Z,5.1
2022-10-06T06:26:48.830Z,5.2
2022-10-06T06:27:57.189Z,5.2
2022-10-06T06:29:05.577Z,5.2
2022-10-06T06:30:14.035Z,4.6
2022-10-06T06:31:22.408Z,4.6
2022-10-06T06:32:30.671Z,4.6
2022-10-06T06:33:39.193Z,3.7
2022-10-06T06:34:47.501Z,3.7
2022-10-06T06:35:55.819Z,3.7
2022-10-06T06:37:07.627Z,3.5
2022-10-06T06:38:12.715Z,3.5
2022-10-06T06:39:21.049Z,3.5
2022-10-06T06:40:29.602Z,3.4
2022-10-06T06:41:38.054Z,3.4
2022-10-06T06:42:49.221Z,3.4
2022-10-06T06:43:54.800Z,3.1
2022-10-06T06:45:03.163Z,3.1
2022-10-06T06:46:11.653Z,3.1
2022-10-06T06:47:20.909Z,3
2022-10-06T06:48:28.733Z,3
2022-10-06T06:49:36.692Z,3
2022-10-06T06:50:45.211Z,3.1
2022-10-06T06:51:53.555Z,3.1
2022-10-06T06:53:01.866Z,3.1
2022-10-06T06:54:10.414Z,3.1
2022-10-06T06:55:18.731Z,3.1
2022-10-06T06:56:27.096Z,3.1
2022-10-06T06:57:35.599Z,3
2022-10-06T06:58:43.982Z,3
2022-10-06T06:59:52.312Z,3
2022-10-06T07:01:00.939Z,2.7
2022-10-06T07:02:09.233Z,2.7
2022-10-06T07:03:28.208Z,2.7
2022-10-06T07:04:26.104Z,2.9
2022-10-06T07:05:34.434Z,2.9
2022-10-06T07:06:42.736Z,2.9
2022-10-06T07:07:51.274Z,2.7
2022-10-06T07:08:59.614Z,2.7
2022-10-06T07:10:07.930Z,2.7
2022-10-06T07:11:16.456Z,2.5
2022-10-06T07:12:24.813Z,2.5
2022-10-06T07:13:33.131Z,2.5
2022-10-06T07:14:41.668Z,2.3
2022-10-06T07:15:50.021Z,2.3
2022-10-06T07:16:58.346Z,2.3
2022-10-06T07:18:06.900Z,2
2022-10-06T07:19:15.211Z,2
2022-10-06T07:20:23.642Z,2
2022-10-06T07:21:32.071Z,1.9
2022-10-06T07:22:40.388Z,1.9
2022-10-06T07:23:48.742Z,1.9
2022-10-06T07:24:57.291Z,1.5
2022-10-06T07:26:05.615Z,1.5
2022-10-06T07:27:13.926Z,1.5
2022-10-06T07:28:22.551Z,1.5
2022-10-06T07:29:30.783Z,1.5
2022-10-06T07:30:40.810Z,1.5
2022-10-06T07:31:47.668Z,0.8
2022-10-06T07:32:56.038Z,0.8
2022-10-06T07:34:04.329Z,0.8
2022-10-06T07:35:12.880Z,0.7
2022-10-06T07:36:21.235Z,0.7
2022-10-06T07:37:29.593Z,0.7
2022-10-06T07:38:38.106Z,0.5
2022-10-06T07:39:46.422Z,0.5
2022-10-06T07:41:14.866Z,0.5
2022-10-06T07:42:03.255Z,0.7
2022-10-06T07:43:11.581Z,0.7
2022-10-06T07:44:19.894Z,0.7
2022-10-06T07:45:28.453Z,0.6
2022-10-06T07:46:36.755Z,0.6
2022-10-06T07:47:45.109Z,0.6
2022-10-06T07:48:53.660Z,0.6
2022-10-06T07:50:01.972Z,0.6
2022-10-06T07:51:10.281Z,0.6
2022-10-06T07:52:18.801Z,0.7
2022-10-06T07:53:27.124Z,0.7
2022-10-06T07:54:35.472Z,0.7
2022-10-06T07:55:44.007Z,0.6
2022-10-06T07:56:52.334Z,0.6
2022-10-06T07:58:00.669Z,0.6
2022-10-06T07:59:09.235Z,0.8
2022-10-06T08:00:17.571Z,0.8
2022-10-06T08:01:25.896Z,0.8
2022-10-06T08:02:35.473Z,0.8
2022-10-06T08:03:42.759Z,0.8
2022-10-06T08:04:51.405Z,0.8
2022-10-06T08:05:59.603Z,1.1
2022-10-06T08:07:07.979Z,1.1
2022-10-06T08:08:16.280Z,1.1
2022-10-06T08:09:24.834Z,0.9
2022-10-06T08:10:33.165Z,0.9
2022-10-06T08:11:41.477Z,0.9
2022-10-06T08:12:50.011Z,1.1
2022-10-06T08:13:58.346Z,1.1
2022-10-06T08:15:07.330Z,1.1
2022-10-06T08:16:15.387Z,0.9
2022-10-06T08:17:23.563Z,0.9
2022-10-06T08:18:45.789Z,0.9
2022-10-06T08:19:40.435Z,1.3
2022-10-06T08:20:48.838Z,1.3
2022-10-06T08:21:59.907Z,1.3
2022-10-06T08:23:05.650Z,1.1
2022-10-06T08:24:13.961Z,1.1
2022-10-06T08:25:22.276Z,1.1
2022-10-06T08:26:30.823Z,1.1
2022-10-06T08:27:39.162Z,1.1
2022-10-06T08:28:47.487Z,1.1
2022-10-06T08:29:56.015Z,1.6
2022-10-06T08:31:04.374Z,1.6
2022-10-06T08:32:12.679Z,1.6
2022-10-06T08:33:21.621Z,1
2022-10-06T08:34:29.537Z,1
2022-10-06T08:35:37.906Z,1
2022-10-06T08:37:02.336Z,1.1
2022-10-06T08:37:54.789Z,1.1
2022-10-06T08:39:03.116Z,1.1
2022-10-06T08:40:11.657Z,1.1
2022-10-06T08:41:20.015Z,1.1
2022-10-06T08:42:28.323Z,1.1
2022-10-06T08:43:36.895Z,1.2
2022-10-06T08:44:45.201Z,1.2
2022-10-06T08:47:02.076Z,1.2
2022-10-06T08:48:10.413Z,1.2
2022-10-06T08:49:18.772Z,1.2
2022-10-06T08:50:27.323Z,0.9
2022-10-06T08:51:35.627Z,0.9
2022-10-06T08:52:43.976Z,0.9
2022-10-06T08:53:52.480Z,1.2
2022-10-06T08:55:00.788Z,1.2
2022-10-06T08:56:09.099Z,1.2
2022-10-06T08:57:17.622Z,1.1
2022-10-06T08:58:25.948Z,1.1
2022-10-06T08:59:34.252Z,1.1
2022-10-06T09:00:42.763Z,0.9
2022-10-06T09:01:51.186Z,0.9
2022-10-06T09:02:59.441Z,0.9
2022-10-06T09:04:07.996Z,1.2
2022-10-06T09:05:16.307Z,1.2
2022-10-06T09:06:24.649Z,1.2
2022-10-06T09:07:33.226Z,1
2022-10-06T09:08:41.573Z,1
2022-10-06T09:09:49.923Z,1
2022-10-06T09:10:58.443Z,1.2
2022-10-06T09:12:06.806Z,1.2
2022-10-06T09:13:18.430Z,1.2
2022-10-06T09:14:23.660Z,0.9
2022-10-06T09:15:32.005Z,0.9
2022-10-06T09:16:40.320Z,0.9
2022-10-06T09:17:48.856Z,1.2
2022-10-06T09:19:08.009Z,1.2
2022-10-06T09:20:05.488Z,1.2
2022-10-06T09:21:14.056Z,1.1
2022-10-06T09:22:22.395Z,1.1
2022-10-06T09:23:30.713Z,1.1
2022-10-06T09:24:42.465Z,1.5
2022-10-06T09:25:47.588Z,1.5
2022-10-06T09:26:55.930Z,1.5
2022-10-06T09:28:04.530Z,1.3
2022-10-06T09:29:12.797Z,1.3
2022-10-06T09:30:21.116Z,1.3
2022-10-06T09:31:29.690Z,1.3
2022-10-06T09:32:37.973Z,1.3
2022-10-06T09:33:46.331Z,1.3
2022-10-06T09:34:54.858Z,1.4
2022-10-06T09:36:03.188Z,1.4
2022-10-06T09:37:11.544Z,1.4
2022-10-06T09:38:20.052Z,1.4
2022-10-06T09:39:28.394Z,1.4
2022-10-06T09:40:36.743Z,1.4
2022-10-06T09:41:45.236Z,1.5
2022-10-06T09:42:53.578Z,1.5
2022-10-06T09:44:01.888Z,1.5
2022-10-06T09:45:10.424Z,1.1
2022-10-06T09:46:18.778Z,1.1
2022-10-06T09:47:27.131Z,1.1
2022-10-06T09:48:35.668Z,1
2022-10-06T09:49:43.987Z,1
2022-10-06T09:50:52.306Z,1
2022-10-06T09:52:01.086Z,1.6
2022-10-06T09:53:09.216Z,1.6
2022-10-06T09:54:17.555Z,1.6
2022-10-06T09:55:26.080Z,1.4
2022-10-06T09:56:34.425Z,1.4
2022-10-06T09:57:42.734Z,1.4
2022-10-06T09:58:51.263Z,1.3
2022-10-06T09:59:59.808Z,1.3
2022-10-06T10:01:08.012Z,1.3
2022-10-06T10:02:16.500Z,1.4
2022-10-06T10:03:24.829Z,1.4
2022-10-06T10:04:33.133Z,1.4
2022-10-06T10:05:41.659Z,1.2
2022-10-06T10:06:49.980Z,1.2
2022-10-06T10:07:58.292Z,1.2
2022-10-06T10:09:06.841Z,1.3
2022-10-06T10:10:15.234Z,1.3
2022-10-06T10:11:23.588Z,1.3
2022-10-06T10:12:32.164Z,1.1
2022-10-06T10:13:40.439Z,1.1
2022-10-06T10:14:48.755Z,1.1
2022-10-06T10:15:57.306Z,1.5
2022-10-06T10:17:05.624Z,1.5
2022-10-06T10:18:13.936Z,1.5
2022-10-06T10:19:22.485Z,1.1
2022-10-06T10:20:30.787Z,1.1
2022-10-06T10:21:39.120Z,1.1
2022-10-06T10:22:47.690Z,1.1
2022-10-06T10:23:56.051Z,1.1
2022-10-06T10:25:04.367Z,1.1
2022-10-06T10:26:12.903Z,1.3
2022-10-06T10:27:21.249Z,1.3
2022-10-06T10:28:29.634Z,1.3
2022-10-06T10:29:38.086Z,1.2
2022-10-06T10:30:46.412Z,1.2
2022-10-06T10:31:54.875Z,1.2
2022-10-06T10:33:03.295Z,1.2
2022-10-06T10:34:20.177Z,1.2
2022-10-06T10:35:20.067Z,1.2
2022-10-06T10:36:28.631Z,1.2
2022-10-06T10:37:36.960Z,1.2
2022-10-06T10:38:45.278Z,1.2
2022-10-06T10:39:53.824Z,1.3
2022-10-06T10:41:02.131Z,1.3
2022-10-06T10:42:10.457Z,1.3
2022-10-06T10:43:19.000Z,1.1
2022-10-06T10:44:27.329Z,1.1
2022-10-06T10:45:35.619Z,1.1
2022-10-06T10:46:44.187Z,1.1
2022-10-06T10:47:52.515Z,1.1
2022-10-06T10:49:00.827Z,1.1
2022-10-06T10:50:09.514Z,1.1
2022-10-06T10:51:17.806Z,1.1
2022-10-06T10:52:26.178Z,1.1
2022-10-06T10:53:35.561Z,1.2
2022-10-06T10:54:43.043Z,1.2
2022-10-06T10:55:51.388Z,1.2
2022-10-06T10:56:59.907Z,1.1
2022-10-06T10:58:08.245Z,1.1
2022-10-06T10:59:16.557Z,1.1
2022-10-06T11:00:25.092Z,1.1
2022-10-06T11:01:33.436Z,1.1
2022-10-06T11:02:41.709Z,1.1
2022-10-06T11:03:50.238Z,1
2022-10-06T11:04:58.883Z,1
2022-10-06T11:06:06.890Z,1
2022-10-06T11:07:15.406Z,1.1
2022-10-06T11:08:23.724Z,1.1
2022-10-06T11:09:32.035Z,1.1
2022-10-06T11:10:40.572Z,1
2022-10-06T11:11:52.184Z,1
2022-10-06T11:12:57.195Z,1
2022-10-06T11:14:05.719Z,1
2022-10-06T11:15:14.113Z,1
2022-10-06T11:16:22.507Z,1
2022-10-06T11:17:31.028Z,1.1
2022-10-06T11:18:39.356Z,1.1
2022-10-06T11:19:47.669Z,1.1
2022-10-06T11:20:56.201Z,0.9
2022-10-06T11:22:04.572Z,0.9
2022-10-06T11:23:12.951Z,0.9
2022-10-06T11:24:21.477Z,0.9
2022-10-06T11:25:31.272Z,0.9
2022-10-06T11:26:38.121Z,0.9
2022-10-06T11:27:46.652Z,1.3
2022-10-06T11:28:54.971Z,1.3
2022-10-06T11:30:03.278Z,1.3
2022-10-06T11:31:11.840Z,1
2022-10-06T11:32:23.069Z,1
2022-10-06T11:33:31.359Z,1
2022-10-06T11:34:39.884Z,1
2022-10-06T11:35:48.216Z,1
2022-10-06T11:36:56.537Z,1
2022-10-06T11:38:05.040Z,1.4
2022-10-06T11:39:13.354Z,1.4
2022-10-06T11:40:21.706Z,1.4
2022-10-06T11:41:30.242Z,0.9
2022-10-06T11:42:38.559Z,0.9
2022-10-06T11:43:46.887Z,0.9
2022-10-06T11:44:55.565Z,1.4
2022-10-06T11:46:03.787Z,1.4
2022-10-06T11:47:12.078Z,1.4
2022-10-06T11:48:20.618Z,0.9
2022-10-06T11:49:28.930Z,0.9
2022-10-06T11:50:37.239Z,0.9
2022-10-06T11:51:45.759Z,1
2022-10-06T11:52:54.144Z,1
2022-10-06T11:54:02.469Z,1
2022-10-06T11:55:11.004Z,1.3
2022-10-06T11:56:19.350Z,1.3
2022-10-06T11:57:30.829Z,1.3
2022-10-06T11:58:42.141Z,1.2
2022-10-06T11:59:44.499Z,1.2
2022-10-06T12:00:52.816Z,1.2
2022-10-06T12:02:01.456Z,1.1
2022-10-06T12:03:09.782Z,1.1
2022-10-06T12:04:22.039Z,1.1
2022-10-06T12:05:55.146Z,1
2022-10-06T12:06:34.888Z,1
2022-10-06T12:07:43.199Z,1
2022-10-06T12:08:51.716Z,1
2022-10-06T12:10:00.036Z,1
2022-10-06T12:11:08.363Z,1
2022-10-06T12:12:16.963Z,1.1
2022-10-06T12:17:11.662Z,1.1
2022-10-06T12:17:58.824Z,1.1
2022-10-06T12:19:07.386Z,1.4
2022-10-06T12:20:15.758Z,1.4
2022-10-06T12:21:24.025Z,1.4
2022-10-06T12:22:32.541Z,1.1
2022-10-06T12:23:40.861Z,1.1
2022-10-06T12:24:49.185Z,1.1
2022-10-06T12:25:57.742Z,1.4
2022-10-06T12:27:06.095Z,1.4
2022-10-06T12:28:14.436Z,1.4
2022-10-06T12:29:22.960Z,1.3
2022-10-06T12:30:31.321Z,1.3
2022-10-06T12:31:39.657Z,1.3
2022-10-06T12:32:48.170Z,1.4
2022-10-06T12:33:56.494Z,1.4
2022-10-06T12:35:04.813Z,1.4
2022-10-06T12:36:13.361Z,1.4
2022-10-06T12:37:21.658Z,1.4
2022-10-06T12:38:29.967Z,1.4
2022-10-06T12:39:38.568Z,1.1
2022-10-06T12:40:46.938Z,1.1
2022-10-06T12:41:55.225Z,1.1
2022-10-06T12:43:03.746Z,1.2
2022-10-06T12:44:12.124Z,1.2
2022-10-06T12:45:20.442Z,1.2
2022-10-06T12:46:29.090Z,1.1
2022-10-06T12:47:37.294Z,1.1
2022-10-06T12:48:45.615Z,1.1
2022-10-06T12:49:54.150Z,1.3
2022-10-06T12:51:02.469Z,1.3
2022-10-06T12:52:10.805Z,1.3
2022-10-06T12:53:19.302Z,1
2022-10-06T12:54:27.638Z,1
2022-10-06T12:55:35.961Z,1
2022-10-06T12:56:44.476Z,1.2
2022-10-06T12:57:52.795Z,1.2
2022-10-06T12:59:01.156Z,1.2
2022-10-06T13:00:09.688Z,1.1
2022-10-06T13:01:18.043Z,1.1
2022-10-06T13:02:26.424Z,1.1
2022-10-06T13:03:34.892Z,1.5
2022-10-06T13:04:43.205Z,1.5
2022-10-06T13:05:51.525Z,1.5
2022-10-06T13:07:00.067Z,1.4
2022-10-06T13:08:08.475Z,1.4
2022-10-06T13:09:16.744Z,1.4
2022-10-06T13:10:25.271Z,1.2
2022-10-06T13:11:33.583Z,1.2
2022-10-06T13:12:41.908Z,1.2
2022-10-06T13:13:50.463Z,1.1
2022-10-06T13:14:58.931Z,1.1
2022-10-06T13:16:07.092Z,1.1
2022-10-06T13:17:15.666Z,1.3
2022-10-06T13:18:23.950Z,1.3
2022-10-06T13:19:32.288Z,1.3
2022-10-06T13:20:40.815Z,1.3
2022-10-06T13:21:49.126Z,1.3
2022-10-06T13:22:57.438Z,1.3
2022-10-06T13:24:06.000Z,1.4
2022-10-06T13:25:14.290Z,1.4
2022-10-06T13:26:22.623Z,1.4
2022-10-06T13:27:31.157Z,1.5
2022-10-06T13:28:39.506Z,1.5
2022-10-06T13:29:47.814Z,1.5
2022-10-06T13:30:56.421Z,1.2
2022-10-06T13:32:04.710Z,1.2
2022-10-06T13:33:13.033Z,1.2
2022-10-06T13:34:21.580Z,1.3
2022-10-06T13:35:29.891Z,1.3
2022-10-06T13:36:38.233Z,1.3
2022-10-06T13:37:46.750Z,1.5
2022-10-06T13:38:55.098Z,1.5
2022-10-06T13:40:08.897Z,1.5
2022-10-06T13:41:11.927Z,1.3
2022-10-06T13:42:20.257Z,1.3
2022-10-06T13:43:28.592Z,1.3
2022-10-06T13:44:37.113Z,1.2
2022-10-06T13:45:45.445Z,1.2
2022-10-06T13:46:53.775Z,1.2
2022-10-06T13:48:02.296Z,1.2
2022-10-06T13:49:10.614Z,1.2
2022-10-06T13:50:20.091Z,1.2
2022-10-06T13:51:27.473Z,1.4
2022-10-06T13:52:35.790Z,1.4
2022-10-06T13:53:44.133Z,1.4
2022-10-06T13:54:52.656Z,1.1
2022-10-06T13:56:00.997Z,1.1
2022-10-06T13:57:09.302Z,1.1
2022-10-06T13:58:17.848Z,1.5
2022-10-06T13:59:26.183Z,1.5
2022-10-06T14:00:34.502Z,1.5
2022-10-06T14:01:43.104Z,1.3
2022-10-06T14:02:51.428Z,1.3
2022-10-06T14:03:59.690Z,1.3
2022-10-06T14:05:08.216Z,1.7
2022-10-06T14:06:16.545Z,1.7
2022-10-06T14:07:24.853Z,1.7
2022-10-06T14:08:33.407Z,1.3
2022-10-06T14:09:41.720Z,1.3
2022-10-06T14:10:50.050Z,1.3
2022-10-06T14:11:58.605Z,1.4
2022-10-06T14:13:06.905Z,1.4
2022-10-06T14:14:15.216Z,1.4
2022-10-06T14:15:23.803Z,1.6
2022-10-06T14:16:32.119Z,1.6
2022-10-06T14:17:40.465Z,1.6
2022-10-06T14:18:49.032Z,1.5
2022-10-06T14:19:57.605Z,1.5
2022-10-06T14:21:05.670Z,1.5
2022-10-06T14:22:14.190Z,1.5
2022-10-06T14:23:22.524Z,1.5
2022-10-06T14:24:30.828Z,1.5
2022-10-06T14:25:39.349Z,1.3
2022-10-06T14:26:47.670Z,1.3
2022-10-06T14:27:56.039Z,1.3
2022-10-06T14:29:04.514Z,1
2022-10-06T15:02:29.153Z,0
2022-10-06T15:03:37.428Z,0
2022-10-06T15:04:45.619Z,0
2022-10-06T15:05:54.147Z,1.9
2022-10-06T15:07:02.498Z,1.9
2022-10-06T15:08:10.827Z,1.9
2022-10-06T15:09:19.394Z,1.7
2022-10-06T15:10:27.697Z,1.7
2022-10-06T15:11:36.022Z,1.7
2022-10-06T15:12:44.560Z,1.9
2022-10-06T15:13:52.887Z,1.9
2022-10-06T15:15:01.216Z,1.9
2022-10-06T15:16:09.840Z,1.7
2022-10-06T15:17:18.085Z,1.7
2022-10-06T15:18:26.436Z,1.7
2022-10-06T15:19:34.936Z,2.3
2022-10-06T15:20:43.264Z,2.3
2022-10-06T15:21:51.585Z,2.3
2022-10-06T15:23:00.122Z,3.6
2022-10-06T15:24:08.452Z,3.6
2022-10-06T15:25:16.792Z,3.6
2022-10-06T15:26:25.334Z,2.5
2022-10-06T15:27:33.704Z,2.5
2022-10-06T15:28:42.018Z,2.5
2022-10-06T15:29:50.518Z,1.3
2022-10-06T15:30:58.937Z,1.3
2022-10-06T15:32:07.331Z,1.3
2022-10-06T15:33:15.725Z,2.2
2022-10-06T15:34:24.067Z,2.2
2022-10-06T15:35:32.383Z,2.2
2022-10-06T15:36:40.904Z,2.9
2022-10-06T15:37:49.243Z,2.9
2022-10-06T15:38:57.583Z,2.9
2022-10-06T15:40:06.120Z,1.4
2022-10-06T15:41:14.452Z,1.4
2022-10-06T15:42:22.781Z,1.4
2022-10-06T15:43:31.308Z,1.2
2022-10-06T15:44:39.659Z,1.2
2022-10-06T15:45:47.975Z,1.2
2022-10-06T15:46:56.600Z,1.3
2022-10-06T15:48:04.870Z,1.3
2022-10-06T15:49:13.180Z,1.3
2022-10-06T15:50:21.725Z,2.1
2022-10-06T15:51:30.040Z,2.1
2022-10-06T15:52:38.994Z,2.1
2022-10-06T15:53:47.524Z,2.6
2022-10-06T15:54:55.836Z,2.6
2022-10-06T15:56:04.168Z,2.6
2022-10-06T15:57:16.538Z,1.9
2022-10-06T15:58:21.028Z,1.9
2022-10-06T15:59:29.352Z,1.9
2022-10-06T16:00:37.902Z,2.2
2022-10-06T16:01:46.397Z,2.2
2022-10-06T16:02:54.658Z,2.2
2022-10-06T16:04:03.105Z,2.4
2022-10-06T16:05:11.446Z,2.4
2022-10-06T16:06:19.812Z,2.4
2022-10-06T16:07:28.324Z,1.5
2022-10-06T16:08:36.643Z,1.5
2022-10-06T16:09:44.976Z,1.5
2022-10-06T16:10:53.517Z,1.4
2022-10-06T16:12:01.828Z,1.4
2022-10-06T16:13:10.166Z,1.4
2022-10-06T16:14:18.713Z,1.4
2022-10-06T16:15:27.028Z,1.4
2022-10-06T16:16:37.809Z,1.4
2022-10-06T16:17:43.863Z,1.8
2022-10-06T16:18:52.179Z,1.8
2022-10-06T16:20:00.500Z,1.8
2022-10-06T16:21:09.053Z,2.6
2022-10-06T16:22:17.402Z,2.6
2022-10-06T16:23:25.695Z,2.6
2022-10-06T16:24:34.227Z,5
2022-10-06T16:25:42.596Z,5